首页
METAR-TAF:

METAR-TAF

机场 :

Tri-Cities Airport

帕斯科, 华盛顿, 美国

纬度: 46-16-11N, 经度: 119-07-00W, 海拔: 124米

当前天气观测

该预报发布于53分钟前的07:53 UTC
静风
温度 1°C
湿度 86%
气压 1014 hPa
能見度: 14.5公里
阴天层高于1600英尺

METAR: KPSC 170753Z AUTO 00000KT 9SM OVC016 01/M01 A2994 RMK AO2 SLP143 T00061006 400281050

时间: 00:46 (08:46 UTC)

预报

该预报发布于3小时和26分钟前的05:20 UTC
预报有效从17日的 06点(UTC)到 18日的 06点(UTC)
风速4节,风向多变
能見度: 10公里
阴天层高于1700英尺
从 17日的 1800点(UTC)
风速7节,风向北转西北
能見度: 8.0公里
散云层高于1500英尺
多云层高于4000英尺
轻雾
从 17日的 2300点(UTC)
风速7节,风向
能見度: 10公里
阴天层高于10000英尺

TAF: KPSC 170520Z 1706/1806 VRB04KT P6SM OVC017 FM171800 33007KT 5SM BR SCT015 BKN040 FM172300 35007KT P6SM OVC100

超过4000个机场的气象观测和天气预报(METAR&TAF报告)。

可查询的气象台以黄色和红色小点在地图上表示。

将鼠标移到小点上方,可查看气象台名称。

然后点击查看天气观测和预报。

如需切换地图:点击带黑十字的绿色按钮放大地图;点击带横线的绿色按钮缩小地图;或者点击绿色箭头查看邻近地区的地图。


METAR-TAF: